sensor_id;sensor_type;location;lat;lon;timestamp;P1;durP1;ratioP1;P2;durP2;ratioP2
69744;SDS011;57015;50.120;-5.168;2023-11-19T00:00:21;40.63;;;6.50;;
69744;SDS011;57015;50.120;-5.168;2023-11-19T00:02:46;46.43;;;9.43;;
69744;SDS011;57015;50.120;-5.168;2023-11-19T00:05:12;44.03;;;7.23;;
69744;SDS011;57015;50.120;-5.168;2023-11-19T00:07:38;43.42;;;5.20;;
69744;SDS011;57015;50.120;-5.168;2023-11-19T00:10:07;54.47;;;6.47;;
69744;SDS011;57015;50.120;-5.168;2023-11-19T00:12:37;50.45;;;5.75;;
69744;SDS011;57015;50.120;-5.168;2023-11-19T00:15:09;41.22;;;5.80;;
69744;SDS011;57015;50.120;-5.168;2023-11-19T00:17:39;40.57;;;6.27;;
69744;SDS011;57015;50.120;-5.168;2023-11-19T00:20:09;38.70;;;6.32;;
69744;SDS011;57015;50.120;-5.168;2023-11-19T00:22:35;44.15;;;5.03;;
69744;SDS011;57015;50.120;-5.168;2023-11-19T00:25:01;35.83;;;4.57;;
69744;SDS011;57015;50.120;-5.168;2023-11-19T00:27:27;43.58;;;4.97;;
69744;SDS011;57015;50.120;-5.168;2023-11-19T00:29:52;53.53;;;6.63;;
69744;SDS011;57015;50.120;-5.168;2023-11-19T00:32:17;33.63;;;5.90;;
69744;SDS011;57015;50.120;-5.168;2023-11-19T00:34:46;39.63;;;4.57;;
69744;SDS011;57015;50.120;-5.168;2023-11-19T00:37:13;33.50;;;4.77;;
69744;SDS011;57015;50.120;-5.168;2023-11-19T00:39:41;36.60;;;5.55;;
69744;SDS011;57015;50.120;-5.168;2023-11-19T00:42:08;43.97;;;5.28;;
69744;SDS011;57015;50.120;-5.168;2023-11-19T00:44:35;35.97;;;5.35;;
69744;SDS011;57015;50.120;-5.168;2023-11-19T00:47:00;34.93;;;5.37;;
69744;SDS011;57015;50.120;-5.168;2023-11-19T00:49:26;39.33;;;5.00;;
69744;SDS011;57015;50.120;-5.168;2023-11-19T00:51:51;30.90;;;5.82;;
69744;SDS011;57015;50.120;-5.168;2023-11-19T00:54:17;38.07;;;5.20;;
69744;SDS011;57015;50.120;-5.168;2023-11-19T00:56:42;45.33;;;4.83;;
69744;SDS011;57015;50.120;-5.168;2023-11-19T00:59:07;47.77;;;5.40;;
69744;SDS011;57015;50.120;-5.168;2023-11-19T01:01:33;33.30;;;3.73;;
69744;SDS011;57015;50.120;-5.168;2023-11-19T01:03:58;39.23;;;4.40;;
69744;SDS011;57015;50.120;-5.168;2023-11-19T01:06:27;35.45;;;5.70;;
69744;SDS011;57015;50.120;-5.168;2023-11-19T01:08:56;33.65;;;5.03;;
69744;SDS011;57015;50.120;-5.168;2023-11-19T01:11:22;33.70;;;4.30;;
69744;SDS011;57015;50.120;-5.168;2023-11-19T01:13:48;37.05;;;5.43;;
69744;SDS011;57015;50.120;-5.168;2023-11-19T01:16:13;31.43;;;4.77;;
69744;SDS011;57015;50.120;-5.168;2023-11-19T01:18:39;36.83;;;4.90;;
69744;SDS011;57015;50.120;-5.168;2023-11-19T01:21:04;42.07;;;5.80;;
69744;SDS011;57015;50.120;-5.168;2023-11-19T01:23:30;33.65;;;5.60;;
69744;SDS011;57015;50.120;-5.168;2023-11-19T01:25:55;34.03;;;4.67;;
69744;SDS011;57015;50.120;-5.168;2023-11-19T01:28:21;40.37;;;5.73;;
69744;SDS011;57015;50.120;-5.168;2023-11-19T01:30:46;38.17;;;4.77;;
69744;SDS011;57015;50.120;-5.168;2023-11-19T01:33:11;31.47;;;4.20;;
69744;SDS011;57015;50.120;-5.168;2023-11-19T01:35:37;44.03;;;6.32;;
69744;SDS011;57015;50.120;-5.168;2023-11-19T01:38:02;36.05;;;4.85;;
69744;SDS011;57015;50.120;-5.168;2023-11-19T01:40:27;41.37;;;5.33;;
69744;SDS011;57015;50.120;-5.168;2023-11-19T01:42:53;34.90;;;4.60;;
69744;SDS011;57015;50.120;-5.168;2023-11-19T01:45:38;43.67;;;5.25;;
69744;SDS011;57015;50.120;-5.168;2023-11-19T01:48:04;41.23;;;5.03;;
69744;SDS011;57015;50.120;-5.168;2023-11-19T01:50:30;36.53;;;3.75;;
69744;SDS011;57015;50.120;-5.168;2023-11-19T01:52:55;47.37;;;6.03;;
69744;SDS011;57015;50.120;-5.168;2023-11-19T01:55:25;46.13;;;6.05;;
69744;SDS011;57015;50.120;-5.168;2023-11-19T01:57:51;42.15;;;4.97;;
69744;SDS011;57015;50.120;-5.168;2023-11-19T02:00:18;38.72;;;4.70;;
69744;SDS011;57015;50.120;-5.168;2023-11-19T02:02:44;40.42;;;5.57;;
69744;SDS011;57015;50.120;-5.168;2023-11-19T02:05:11;43.70;;;4.77;;
69744;SDS011;57015;50.120;-5.168;2023-11-19T02:07:38;30.90;;;3.83;;
69744;SDS011;57015;50.120;-5.168;2023-11-19T02:10:03;26.00;;;4.88;;
69744;SDS011;57015;50.120;-5.168;2023-11-19T02:12:30;39.45;;;5.70;;
69744;SDS011;57015;50.120;-5.168;2023-11-19T02:14:59;35.22;;;4.82;;
69744;SDS011;57015;50.120;-5.168;2023-11-19T02:17:25;38.03;;;5.22;;
69744;SDS011;57015;50.120;-5.168;2023-11-19T02:19:51;39.65;;;5.50;;
69744;SDS011;57015;50.120;-5.168;2023-11-19T02:22:17;39.57;;;4.97;;
69744;SDS011;57015;50.120;-5.168;2023-11-19T02:24:42;46.13;;;7.07;;
69744;SDS011;57015;50.120;-5.168;2023-11-19T02:27:10;34.03;;;4.83;;
69744;SDS011;57015;50.120;-5.168;2023-11-19T02:29:38;42.72;;;4.88;;
69744;SDS011;57015;50.120;-5.168;2023-11-19T02:32:04;27.43;;;4.03;;
69744;SDS011;57015;50.120;-5.168;2023-11-19T02:34:30;36.10;;;3.65;;
69744;SDS011;57015;50.120;-5.168;2023-11-19T02:36:56;33.27;;;5.27;;
69744;SDS011;57015;50.120;-5.168;2023-11-19T02:39:21;31.33;;;3.80;;
69744;SDS011;57015;50.120;-5.168;2023-11-19T02:41:47;29.97;;;4.03;;
69744;SDS011;57015;50.120;-5.168;2023-11-19T02:44:15;29.50;;;3.78;;
69744;SDS011;57015;50.120;-5.168;2023-11-19T02:46:41;35.30;;;5.73;;
69744;SDS011;57015;50.120;-5.168;2023-11-19T02:49:07;41.00;;;5.22;;
69744;SDS011;57015;50.120;-5.168;2023-11-19T02:51:32;37.57;;;5.17;;
69744;SDS011;57015;50.120;-5.168;2023-11-19T02:53:59;32.88;;;3.72;;
69744;SDS011;57015;50.120;-5.168;2023-11-19T02:56:25;38.27;;;5.03;;
69744;SDS011;57015;50.120;-5.168;2023-11-19T02:58:51;27.93;;;4.63;;
69744;SDS011;57015;50.120;-5.168;2023-11-19T03:01:23;35.30;;;5.00;;
69744;SDS011;57015;50.120;-5.168;2023-11-19T03:03:58;33.08;;;4.82;;
69744;SDS011;57015;50.120;-5.168;2023-11-19T03:06:26;34.83;;;4.60;;
69744;SDS011;57015;50.120;-5.168;2023-11-19T03:08:52;32.95;;;5.75;;
69744;SDS011;57015;50.120;-5.168;2023-11-19T03:11:17;32.77;;;4.20;;
69744;SDS011;57015;50.120;-5.168;2023-11-19T03:13:43;32.27;;;4.03;;
69744;SDS011;57015;50.120;-5.168;2023-11-19T03:16:08;33.60;;;4.23;;
69744;SDS011;57015;50.120;-5.168;2023-11-19T03:18:34;41.67;;;4.20;;
69744;SDS011;57015;50.120;-5.168;2023-11-19T03:21:00;32.37;;;3.97;;
69744;SDS011;57015;50.120;-5.168;2023-11-19T03:23:25;34.43;;;4.47;;
69744;SDS011;57015;50.120;-5.168;2023-11-19T03:25:54;34.00;;;4.82;;
69744;SDS011;57015;50.120;-5.168;2023-11-19T03:28:19;41.00;;;4.83;;
69744;SDS011;57015;50.120;-5.168;2023-11-19T03:30:44;30.75;;;4.72;;
69744;SDS011;57015;50.120;-5.168;2023-11-19T03:33:10;33.40;;;4.30;;
69744;SDS011;57015;50.120;-5.168;2023-11-19T03:35:35;30.77;;;4.10;;
69744;SDS011;57015;50.120;-5.168;2023-11-19T03:38:00;27.87;;;3.90;;
69744;SDS011;57015;50.120;-5.168;2023-11-19T03:40:26;24.40;;;3.33;;
69744;SDS011;57015;50.120;-5.168;2023-11-19T03:42:51;32.80;;;4.00;;
69744;SDS011;57015;50.120;-5.168;2023-11-19T03:45:17;41.10;;;4.97;;
69744;SDS011;57015;50.120;-5.168;2023-11-19T03:47:42;35.73;;;5.27;;
69744;SDS011;57015;50.120;-5.168;2023-11-19T03:50:07;34.40;;;3.73;;
69744;SDS011;57015;50.120;-5.168;2023-11-19T03:52:34;34.88;;;4.15;;
69744;SDS011;57015;50.120;-5.168;2023-11-19T03:54:59;27.90;;;3.87;;
69744;SDS011;57015;50.120;-5.168;2023-11-19T03:57:25;47.08;;;4.95;;
69744;SDS011;57015;50.120;-5.168;2023-11-19T03:59:51;30.77;;;4.75;;
69744;SDS011;57015;50.120;-5.168;2023-11-19T04:02:17;30.10;;;4.10;;
69744;SDS011;57015;50.120;-5.168;2023-11-19T04:04:42;33.13;;;3.83;;
69744;SDS011;57015;50.120;-5.168;2023-11-19T04:07:08;30.33;;;4.83;;
69744;SDS011;57015;50.120;-5.168;2023-11-19T04:09:33;38.30;;;4.67;;
69744;SDS011;57015;50.120;-5.168;2023-11-19T04:11:59;24.90;;;4.30;;
69744;SDS011;57015;50.120;-5.168;2023-11-19T04:14:25;32.92;;;4.28;;
69744;SDS011;57015;50.120;-5.168;2023-11-19T04:16:51;30.50;;;4.38;;
69744;SDS011;57015;50.120;-5.168;2023-11-19T04:19:16;39.67;;;5.10;;
69744;SDS011;57015;50.120;-5.168;2023-11-19T04:21:42;31.30;;;3.97;;
69744;SDS011;57015;50.120;-5.168;2023-11-19T04:24:08;29.10;;;3.50;;
69744;SDS011;57015;50.120;-5.168;2023-11-19T04:26:39;31.43;;;3.93;;
69744;SDS011;57015;50.120;-5.168;2023-11-19T04:29:05;28.38;;;4.28;;
69744;SDS011;57015;50.120;-5.168;2023-11-19T04:31:31;24.97;;;3.67;;
69744;SDS011;57015;50.120;-5.168;2023-11-19T04:33:56;29.65;;;4.15;;
69744;SDS011;57015;50.120;-5.168;2023-11-19T04:36:22;46.63;;;6.70;;
69744;SDS011;57015;50.120;-5.168;2023-11-19T04:38:49;35.60;;;5.75;;
69744;SDS011;57015;50.120;-5.168;2023-11-19T04:41:15;37.10;;;4.07;;
69744;SDS011;57015;50.120;-5.168;2023-11-19T04:43:40;29.10;;;4.43;;
69744;SDS011;57015;50.120;-5.168;2023-11-19T04:46:06;25.77;;;4.00;;
69744;SDS011;57015;50.120;-5.168;2023-11-19T04:48:31;30.75;;;4.03;;
69744;SDS011;57015;50.120;-5.168;2023-11-19T04:50:57;33.43;;;4.17;;
69744;SDS011;57015;50.120;-5.168;2023-11-19T04:53:22;32.57;;;4.03;;
69744;SDS011;57015;50.120;-5.168;2023-11-19T04:55:48;38.05;;;3.75;;
69744;SDS011;57015;50.120;-5.168;2023-11-19T04:58:13;30.48;;;3.60;;
69744;SDS011;57015;50.120;-5.168;2023-11-19T05:00:39;27.47;;;4.10;;
69744;SDS011;57015;50.120;-5.168;2023-11-19T05:03:04;28.90;;;3.70;;
69744;SDS011;57015;50.120;-5.168;2023-11-19T05:05:30;36.23;;;4.70;;
69744;SDS011;57015;50.120;-5.168;2023-11-19T05:07:55;28.57;;;4.23;;
69744;SDS011;57015;50.120;-5.168;2023-11-19T05:10:21;30.75;;;4.28;;
69744;SDS011;57015;50.120;-5.168;2023-11-19T05:12:46;34.50;;;5.73;;
69744;SDS011;57015;50.120;-5.168;2023-11-19T05:15:11;39.30;;;4.03;;
69744;SDS011;57015;50.120;-5.168;2023-11-19T05:17:37;36.35;;;5.07;;
69744;SDS011;57015;50.120;-5.168;2023-11-19T05:20:04;31.97;;;4.37;;
69744;SDS011;57015;50.120;-5.168;2023-11-19T05:22:30;31.48;;;5.05;;
69744;SDS011;57015;50.120;-5.168;2023-11-19T05:24:55;29.60;;;4.20;;
69744;SDS011;57015;50.120;-5.168;2023-11-19T05:27:21;34.28;;;5.13;;
69744;SDS011;57015;50.120;-5.168;2023-11-19T05:29:47;32.70;;;4.15;;
69744;SDS011;57015;50.120;-5.168;2023-11-19T05:32:12;24.42;;;4.68;;
69744;SDS011;57015;50.120;-5.168;2023-11-19T05:34:37;28.80;;;4.03;;
69744;SDS011;57015;50.120;-5.168;2023-11-19T05:37:03;29.13;;;3.80;;
69744;SDS011;57015;50.120;-5.168;2023-11-19T05:39:30;23.77;;;3.55;;
69744;SDS011;57015;50.120;-5.168;2023-11-19T05:41:56;24.70;;;3.10;;
69744;SDS011;57015;50.120;-5.168;2023-11-19T05:44:21;34.37;;;5.70;;
69744;SDS011;57015;50.120;-5.168;2023-11-19T05:46:46;25.17;;;4.13;;
69744;SDS011;57015;50.120;-5.168;2023-11-19T05:49:12;28.63;;;3.97;;
69744;SDS011;57015;50.120;-5.168;2023-11-19T05:51:38;32.63;;;3.50;;
69744;SDS011;57015;50.120;-5.168;2023-11-19T05:54:06;33.10;;;4.80;;
69744;SDS011;57015;50.120;-5.168;2023-11-19T05:56:32;24.03;;;4.73;;
69744;SDS011;57015;50.120;-5.168;2023-11-19T05:58:58;30.35;;;4.45;;
69744;SDS011;57015;50.120;-5.168;2023-11-19T06:01:26;24.35;;;3.80;;
69744;SDS011;57015;50.120;-5.168;2023-11-19T06:03:51;36.43;;;4.53;;
69744;SDS011;57015;50.120;-5.168;2023-11-19T06:06:17;28.73;;;3.70;;
69744;SDS011;57015;50.120;-5.168;2023-11-19T06:08:42;33.78;;;5.30;;
69744;SDS011;57015;50.120;-5.168;2023-11-19T06:11:09;28.25;;;3.45;;
69744;SDS011;57015;50.120;-5.168;2023-11-19T06:13:39;29.27;;;4.53;;
69744;SDS011;57015;50.120;-5.168;2023-11-19T06:16:05;28.08;;;3.83;;
69744;SDS011;57015;50.120;-5.168;2023-11-19T06:18:30;34.38;;;4.07;;
69744;SDS011;57015;50.120;-5.168;2023-11-19T06:20:56;37.13;;;3.88;;
69744;SDS011;57015;50.120;-5.168;2023-11-19T06:23:21;26.30;;;4.88;;
69744;SDS011;57015;50.120;-5.168;2023-11-19T06:25:47;35.00;;;3.53;;
69744;SDS011;57015;50.120;-5.168;2023-11-19T06:28:12;18.90;;;3.63;;
69744;SDS011;57015;50.120;-5.168;2023-11-19T06:30:38;31.30;;;4.67;;
69744;SDS011;57015;50.120;-5.168;2023-11-19T06:33:04;27.10;;;5.03;;
69744;SDS011;57015;50.120;-5.168;2023-11-19T06:35:29;27.73;;;5.53;;
69744;SDS011;57015;50.120;-5.168;2023-11-19T06:38:01;22.40;;;4.10;;
69744;SDS011;57015;50.120;-5.168;2023-11-19T06:40:28;27.48;;;3.72;;
69744;SDS011;57015;50.120;-5.168;2023-11-19T06:42:54;33.13;;;4.03;;
69744;SDS011;57015;50.120;-5.168;2023-11-19T06:45:19;46.60;;;6.80;;
69744;SDS011;57015;50.120;-5.168;2023-11-19T06:47:45;28.30;;;3.80;;
69744;SDS011;57015;50.120;-5.168;2023-11-19T06:50:10;25.27;;;3.80;;
69744;SDS011;57015;50.120;-5.168;2023-11-19T06:52:37;29.40;;;3.83;;
69744;SDS011;57015;50.120;-5.168;2023-11-19T06:55:03;28.97;;;3.20;;
69744;SDS011;57015;50.120;-5.168;2023-11-19T06:57:29;26.88;;;4.13;;
69744;SDS011;57015;50.120;-5.168;2023-11-19T06:59:56;25.80;;;4.00;;
69744;SDS011;57015;50.120;-5.168;2023-11-19T07:02:22;21.70;;;3.42;;
69744;SDS011;57015;50.120;-5.168;2023-11-19T07:04:47;27.27;;;4.10;;
69744;SDS011;57015;50.120;-5.168;2023-11-19T07:07:13;28.17;;;4.07;;
69744;SDS011;57015;50.120;-5.168;2023-11-19T07:09:40;26.30;;;4.00;;
69744;SDS011;57015;50.120;-5.168;2023-11-19T07:12:05;25.73;;;3.90;;
69744;SDS011;57015;50.120;-5.168;2023-11-19T07:14:31;29.30;;;4.03;;
69744;SDS011;57015;50.120;-5.168;2023-11-19T07:16:57;21.63;;;3.13;;
69744;SDS011;57015;50.120;-5.168;2023-11-19T07:19:22;30.07;;;4.17;;
69744;SDS011;57015;50.120;-5.168;2023-11-19T07:21:47;32.17;;;3.80;;
69744;SDS011;57015;50.120;-5.168;2023-11-19T07:24:13;32.90;;;6.07;;
69744;SDS011;57015;50.120;-5.168;2023-11-19T07:26:42;33.33;;;5.00;;
69744;SDS011;57015;50.120;-5.168;2023-11-19T07:29:08;33.70;;;5.20;;
69744;SDS011;57015;50.120;-5.168;2023-11-19T07:31:34;33.37;;;5.17;;
69744;SDS011;57015;50.120;-5.168;2023-11-19T07:33:59;33.90;;;4.90;;
69744;SDS011;57015;50.120;-5.168;2023-11-19T07:36:24;35.65;;;4.32;;
69744;SDS011;57015;50.120;-5.168;2023-11-19T07:38:50;33.55;;;4.40;;
69744;SDS011;57015;50.120;-5.168;2023-11-19T07:41:16;33.40;;;4.27;;
69744;SDS011;57015;50.120;-5.168;2023-11-19T07:43:44;31.95;;;3.78;;
69744;SDS011;57015;50.120;-5.168;2023-11-19T07:46:11;30.90;;;4.45;;
69744;SDS011;57015;50.120;-5.168;2023-11-19T07:48:40;33.15;;;4.40;;
69744;SDS011;57015;50.120;-5.168;2023-11-19T07:51:07;34.67;;;6.53;;
69744;SDS011;57015;50.120;-5.168;2023-11-19T07:53:32;35.73;;;4.00;;
69744;SDS011;57015;50.120;-5.168;2023-11-19T07:55:58;37.92;;;5.18;;
69744;SDS011;57015;50.120;-5.168;2023-11-19T07:58:24;30.02;;;4.55;;
69744;SDS011;57015;50.120;-5.168;2023-11-19T08:00:50;36.28;;;4.15;;
69744;SDS011;57015;50.120;-5.168;2023-11-19T08:03:17;34.58;;;4.60;;
69744;SDS011;57015;50.120;-5.168;2023-11-19T08:05:44;29.35;;;3.83;;
69744;SDS011;57015;50.120;-5.168;2023-11-19T08:08:09;33.63;;;4.27;;
69744;SDS011;57015;50.120;-5.168;2023-11-19T08:10:35;29.37;;;4.67;;
69744;SDS011;57015;50.120;-5.168;2023-11-19T08:13:00;30.55;;;3.25;;
69744;SDS011;57015;50.120;-5.168;2023-11-19T08:15:26;29.23;;;3.90;;
69744;SDS011;57015;50.120;-5.168;2023-11-19T08:17:51;26.67;;;4.10;;
69744;SDS011;57015;50.120;-5.168;2023-11-19T08:20:17;33.20;;;3.70;;
69744;SDS011;57015;50.120;-5.168;2023-11-19T08:22:42;29.80;;;4.00;;
69744;SDS011;57015;50.120;-5.168;2023-11-19T08:25:07;31.40;;;3.40;;
69744;SDS011;57015;50.120;-5.168;2023-11-19T08:27:33;22.48;;;3.92;;
69744;SDS011;57015;50.120;-5.168;2023-11-19T08:29:58;26.30;;;3.73;;
69744;SDS011;57015;50.120;-5.168;2023-11-19T08:32:24;29.33;;;3.92;;
69744;SDS011;57015;50.120;-5.168;2023-11-19T08:34:50;26.73;;;3.73;;
69744;SDS011;57015;50.120;-5.168;2023-11-19T08:37:16;36.45;;;4.18;;
69744;SDS011;57015;50.120;-5.168;2023-11-19T08:39:45;26.50;;;3.87;;
69744;SDS011;57015;50.120;-5.168;2023-11-19T08:42:11;28.60;;;5.07;;
69744;SDS011;57015;50.120;-5.168;2023-11-19T08:44:37;29.50;;;3.70;;
69744;SDS011;57015;50.120;-5.168;2023-11-19T08:47:02;35.53;;;4.07;;
69744;SDS011;57015;50.120;-5.168;2023-11-19T08:49:28;31.07;;;4.33;;
69744;SDS011;57015;50.120;-5.168;2023-11-19T08:51:53;25.40;;;3.53;;
69744;SDS011;57015;50.120;-5.168;2023-11-19T08:54:19;31.97;;;5.57;;
69744;SDS011;57015;50.120;-5.168;2023-11-19T08:56:46;30.67;;;3.70;;
69744;SDS011;57015;50.120;-5.168;2023-11-19T08:59:11;31.05;;;4.40;;
69744;SDS011;57015;50.120;-5.168;2023-11-19T09:01:37;25.27;;;3.78;;
69744;SDS011;57015;50.120;-5.168;2023-11-19T09:04:02;36.40;;;4.97;;
69744;SDS011;57015;50.120;-5.168;2023-11-19T09:06:29;33.83;;;3.53;;
69744;SDS011;57015;50.120;-5.168;2023-11-19T09:08:54;27.53;;;3.97;;
69744;SDS011;57015;50.120;-5.168;2023-11-19T09:11:25;36.17;;;4.60;;
69744;SDS011;57015;50.120;-5.168;2023-11-19T09:13:51;30.55;;;5.45;;
69744;SDS011;57015;50.120;-5.168;2023-11-19T09:16:16;28.87;;;4.83;;
69744;SDS011;57015;50.120;-5.168;2023-11-19T09:18:41;26.97;;;4.20;;
69744;SDS011;57015;50.120;-5.168;2023-11-19T09:21:07;33.73;;;4.70;;
69744;SDS011;57015;50.120;-5.168;2023-11-19T09:23:32;40.53;;;5.38;;
69744;SDS011;57015;50.120;-5.168;2023-11-19T09:26:03;37.85;;;6.40;;
69744;SDS011;57015;50.120;-5.168;2023-11-19T09:28:33;28.20;;;4.45;;
69744;SDS011;57015;50.120;-5.168;2023-11-19T09:30:58;33.07;;;4.20;;
69744;SDS011;57015;50.120;-5.168;2023-11-19T09:33:24;35.95;;;4.85;;
69744;SDS011;57015;50.120;-5.168;2023-11-19T09:35:49;32.70;;;4.67;;
69744;SDS011;57015;50.120;-5.168;2023-11-19T09:38:15;27.40;;;3.47;;
69744;SDS011;57015;50.120;-5.168;2023-11-19T09:40:41;30.90;;;4.97;;
69744;SDS011;57015;50.120;-5.168;2023-11-19T09:43:07;34.15;;;3.75;;
69744;SDS011;57015;50.120;-5.168;2023-11-19T09:45:36;27.37;;;3.53;;
69744;SDS011;57015;50.120;-5.168;2023-11-19T09:48:14;30.30;;;3.92;;
69744;SDS011;57015;50.120;-5.168;2023-11-19T09:50:41;34.67;;;4.00;;
69744;SDS011;57015;50.120;-5.168;2023-11-19T09:53:07;23.73;;;3.50;;
69744;SDS011;57015;50.120;-5.168;2023-11-19T09:55:32;27.57;;;4.20;;
69744;SDS011;57015;50.120;-5.168;2023-11-19T09:57:57;32.23;;;4.90;;
69744;SDS011;57015;50.120;-5.168;2023-11-19T10:00:26;26.75;;;3.58;;
69744;SDS011;57015;50.120;-5.168;2023-11-19T10:02:51;22.50;;;3.40;;
69744;SDS011;57015;50.120;-5.168;2023-11-19T10:05:17;19.40;;;3.30;;
69744;SDS011;57015;50.120;-5.168;2023-11-19T10:07:45;26.93;;;3.47;;
69744;SDS011;57015;50.120;-5.168;2023-11-19T10:10:11;26.92;;;4.15;;
69744;SDS011;57015;50.120;-5.168;2023-11-19T10:12:40;33.50;;;4.23;;
69744;SDS011;57015;50.120;-5.168;2023-11-19T10:15:05;26.70;;;3.45;;
69744;SDS011;57015;50.120;-5.168;2023-11-19T10:17:32;35.43;;;4.53;;
69744;SDS011;57015;50.120;-5.168;2023-11-19T10:19:58;28.15;;;3.90;;
69744;SDS011;57015;50.120;-5.168;2023-11-19T10:22:24;31.77;;;4.28;;
69744;SDS011;57015;50.120;-5.168;2023-11-19T10:24:50;34.15;;;4.50;;
69744;SDS011;57015;50.120;-5.168;2023-11-19T10:27:15;29.20;;;4.57;;
69744;SDS011;57015;50.120;-5.168;2023-11-19T10:29:43;26.97;;;3.90;;
69744;SDS011;57015;50.120;-5.168;2023-11-19T10:32:13;33.22;;;4.35;;
69744;SDS011;57015;50.120;-5.168;2023-11-19T10:34:40;40.85;;;3.80;;
69744;SDS011;57015;50.120;-5.168;2023-11-19T10:37:06;27.67;;;3.90;;
69744;SDS011;57015;50.120;-5.168;2023-11-19T10:42:16;33.35;;;4.55;;
69744;SDS011;57015;50.120;-5.168;2023-11-19T10:44:42;29.17;;;3.87;;
69744;SDS011;57015;50.120;-5.168;2023-11-19T10:47:08;28.70;;;5.10;;
69744;SDS011;57015;50.120;-5.168;2023-11-19T10:49:34;27.98;;;4.13;;
69744;SDS011;57015;50.120;-5.168;2023-11-19T10:52:00;30.93;;;3.67;;
69744;SDS011;57015;50.120;-5.168;2023-11-19T10:54:26;22.88;;;3.67;;
69744;SDS011;57015;50.120;-5.168;2023-11-19T10:56:54;30.25;;;4.25;;
69744;SDS011;57015;50.120;-5.168;2023-11-19T10:59:21;38.97;;;5.10;;
69744;SDS011;57015;50.120;-5.168;2023-11-19T11:01:47;28.20;;;3.90;;
69744;SDS011;57015;50.120;-5.168;2023-11-19T11:04:13;33.03;;;4.90;;
69744;SDS011;57015;50.120;-5.168;2023-11-19T11:06:40;32.45;;;4.25;;
69744;SDS011;57015;50.120;-5.168;2023-11-19T11:09:06;33.30;;;3.50;;
69744;SDS011;57015;50.120;-5.168;2023-11-19T11:11:36;27.85;;;3.75;;
69744;SDS011;57015;50.120;-5.168;2023-11-19T11:14:03;33.40;;;3.78;;
69744;SDS011;57015;50.120;-5.168;2023-11-19T11:16:29;33.80;;;4.10;;
69744;SDS011;57015;50.120;-5.168;2023-11-19T11:18:56;23.07;;;3.67;;
69744;SDS011;57015;50.120;-5.168;2023-11-19T11:21:22;25.88;;;4.10;;
69744;SDS011;57015;50.120;-5.168;2023-11-19T11:26:53;29.52;;;5.70;;
69744;SDS011;57015;50.120;-5.168;2023-11-19T11:29:31;28.97;;;4.27;;
69744;SDS011;57015;50.120;-5.168;2023-11-19T11:39:45;33.35;;;5.75;;
69744;SDS011;57015;50.120;-5.168;2023-11-19T11:50:13;29.25;;;3.90;;
69744;SDS011;57015;50.120;-5.168;2023-11-19T11:53:24;22.70;;;3.35;;
69744;SDS011;57015;50.120;-5.168;2023-11-19T11:58:03;24.38;;;4.78;;
69744;SDS011;57015;50.120;-5.168;2023-11-19T12:03:01;25.93;;;4.07;;
69744;SDS011;57015;50.120;-5.168;2023-11-19T12:05:27;27.08;;;4.03;;
69744;SDS011;57015;50.120;-5.168;2023-11-19T12:07:58;27.00;;;3.15;;
69744;SDS011;57015;50.120;-5.168;2023-11-19T12:10:26;21.33;;;3.03;;
69744;SDS011;57015;50.120;-5.168;2023-11-19T12:13:04;23.45;;;2.97;;
69744;SDS011;57015;50.120;-5.168;2023-11-19T12:15:32;24.13;;;3.35;;
69744;SDS011;57015;50.120;-5.168;2023-11-19T12:17:57;21.38;;;3.38;;
69744;SDS011;57015;50.120;-5.168;2023-11-19T12:20:24;22.73;;;4.20;;
69744;SDS011;57015;50.120;-5.168;2023-11-19T12:22:50;27.43;;;2.77;;
69744;SDS011;57015;50.120;-5.168;2023-11-19T12:25:16;26.77;;;4.50;;
69744;SDS011;57015;50.120;-5.168;2023-11-19T12:27:43;23.52;;;3.72;;
69744;SDS011;57015;50.120;-5.168;2023-11-19T12:30:10;23.40;;;3.80;;
69744;SDS011;57015;50.120;-5.168;2023-11-19T12:32:42;23.02;;;4.53;;
69744;SDS011;57015;50.120;-5.168;2023-11-19T12:35:09;22.30;;;4.10;;
69744;SDS011;57015;50.120;-5.168;2023-11-19T12:37:41;20.85;;;2.42;;
69744;SDS011;57015;50.120;-5.168;2023-11-19T12:40:14;23.20;;;2.80;;
69744;SDS011;57015;50.120;-5.168;2023-11-19T12:42:47;21.63;;;4.20;;
69744;SDS011;57015;50.120;-5.168;2023-11-19T12:45:16;32.08;;;4.03;;
69744;SDS011;57015;50.120;-5.168;2023-11-19T12:47:42;23.23;;;2.77;;
69744;SDS011;57015;50.120;-5.168;2023-11-19T12:50:08;21.60;;;3.28;;
69744;SDS011;57015;50.120;-5.168;2023-11-19T12:52:37;26.40;;;3.53;;
69744;SDS011;57015;50.120;-5.168;2023-11-19T12:55:03;21.20;;;3.00;;
69744;SDS011;57015;50.120;-5.168;2023-11-19T12:57:38;23.77;;;3.35;;
69744;SDS011;57015;50.120;-5.168;2023-11-19T13:00:07;25.80;;;3.05;;
69744;SDS011;57015;50.120;-5.168;2023-11-19T13:02:49;22.90;;;4.05;;
69744;SDS011;57015;50.120;-5.168;2023-11-19T13:05:28;19.95;;;2.35;;
69744;SDS011;57015;50.120;-5.168;2023-11-19T13:08:05;20.43;;;2.60;;
69744;SDS011;57015;50.120;-5.168;2023-11-19T13:10:50;23.10;;;3.42;;
69744;SDS011;57015;50.120;-5.168;2023-11-19T13:13:16;19.98;;;2.75;;
69744;SDS011;57015;50.120;-5.168;2023-11-19T13:15:42;21.30;;;2.70;;
69744;SDS011;57015;50.120;-5.168;2023-11-19T13:18:09;29.30;;;4.25;;
69744;SDS011;57015;50.120;-5.168;2023-11-19T13:20:35;26.85;;;4.32;;
69744;SDS011;57015;50.120;-5.168;2023-11-19T13:23:01;24.13;;;3.63;;
69744;SDS011;57015;50.120;-5.168;2023-11-19T13:25:28;19.88;;;3.20;;
69744;SDS011;57015;50.120;-5.168;2023-11-19T13:27:54;26.90;;;3.13;;
69744;SDS011;57015;50.120;-5.168;2023-11-19T13:30:20;26.33;;;3.42;;
69744;SDS011;57015;50.120;-5.168;2023-11-19T13:32:47;23.45;;;3.22;;
69744;SDS011;57015;50.120;-5.168;2023-11-19T13:35:13;17.97;;;2.47;;
69744;SDS011;57015;50.120;-5.168;2023-11-19T13:37:38;18.33;;;3.20;;
69744;SDS011;57015;50.120;-5.168;2023-11-19T13:40:06;18.25;;;2.47;;
69744;SDS011;57015;50.120;-5.168;2023-11-19T13:42:32;28.13;;;3.35;;
69744;SDS011;57015;50.120;-5.168;2023-11-19T13:44:58;16.67;;;2.93;;
69744;SDS011;57015;50.120;-5.168;2023-11-19T13:47:23;17.45;;;2.60;;
69744;SDS011;57015;50.120;-5.168;2023-11-19T13:49:49;17.77;;;2.97;;
69744;SDS011;57015;50.120;-5.168;2023-11-19T13:52:14;16.33;;;1.90;;
69744;SDS011;57015;50.120;-5.168;2023-11-19T13:54:40;23.15;;;2.45;;
69744;SDS011;57015;50.120;-5.168;2023-11-19T13:57:06;14.40;;;1.90;;
69744;SDS011;57015;50.120;-5.168;2023-11-19T13:59:31;22.02;;;2.75;;
69744;SDS011;57015;50.120;-5.168;2023-11-19T14:01:59;15.73;;;1.83;;
69744;SDS011;57015;50.120;-5.168;2023-11-19T14:04:24;14.03;;;1.63;;
69744;SDS011;57015;50.120;-5.168;2023-11-19T14:06:50;12.45;;;1.50;;
69744;SDS011;57015;50.120;-5.168;2023-11-19T14:09:16;15.17;;;1.70;;
69744;SDS011;57015;50.120;-5.168;2023-11-19T14:11:41;14.43;;;1.93;;
69744;SDS011;57015;50.120;-5.168;2023-11-19T14:14:07;22.00;;;1.92;;
69744;SDS011;57015;50.120;-5.168;2023-11-19T14:16:33;34.13;;;3.35;;
69744;SDS011;57015;50.120;-5.168;2023-11-19T14:18:59;13.33;;;2.93;;
69744;SDS011;57015;50.120;-5.168;2023-11-19T14:21:24;20.33;;;3.35;;
69744;SDS011;57015;50.120;-5.168;2023-11-19T14:23:51;17.40;;;2.60;;
69744;SDS011;57015;50.120;-5.168;2023-11-19T14:26:17;19.95;;;2.95;;
69744;SDS011;57015;50.120;-5.168;2023-11-19T14:28:42;17.00;;;2.43;;
69744;SDS011;57015;50.120;-5.168;2023-11-19T14:31:08;20.17;;;2.93;;
69744;SDS011;57015;50.120;-5.168;2023-11-19T14:33:33;18.75;;;1.95;;
69744;SDS011;57015;50.120;-5.168;2023-11-19T14:36:00;15.45;;;2.75;;
69744;SDS011;57015;50.120;-5.168;2023-11-19T14:38:26;19.17;;;2.50;;
69744;SDS011;57015;50.120;-5.168;2023-11-19T14:40:52;19.03;;;2.50;;
69744;SDS011;57015;50.120;-5.168;2023-11-19T14:43:17;15.73;;;2.13;;